createdAt,value
2023-03-01T00:00:11.139Z,25.80
2023-03-01T00:02:45.012Z,24.97
2023-03-01T00:05:15.401Z,22.58
2023-03-01T00:07:48.416Z,25.00
2023-03-01T00:10:18.908Z,21.30
2023-03-01T00:12:49.333Z,24.67
2023-03-01T00:15:22.691Z,22.67
2023-03-01T00:17:53.002Z,23.13
2023-03-01T00:20:23.342Z,24.40
2023-03-01T00:22:56.288Z,24.27
2023-03-01T00:25:26.726Z,23.03
2023-03-01T00:27:59.535Z,22.40
2023-03-01T00:30:29.982Z,25.33
2023-03-01T00:33:00.291Z,25.27
2023-03-01T00:35:30.853Z,22.73
2023-03-01T00:38:07.438Z,25.30
2023-03-01T00:40:39.754Z,27.17
2023-03-01T00:43:11.280Z,23.93
2023-03-01T00:45:41.655Z,25.42
2023-03-01T00:48:12.077Z,23.07
2023-03-01T00:50:42.667Z,23.75
2023-03-01T00:53:15.679Z,23.30
2023-03-01T00:55:48.263Z,24.90
2023-03-01T00:58:18.666Z,25.23
2023-03-01T01:00:49.593Z,28.10
2023-03-01T01:03:20.107Z,28.33
2023-03-01T01:05:50.636Z,31.58
2023-03-01T01:08:24.339Z,24.55
2023-03-01T01:10:56.737Z,28.03
2023-03-01T01:13:27.147Z,23.63
2023-03-01T01:15:57.496Z,24.13
2023-03-01T01:18:27.884Z,24.90
2023-03-01T01:20:58.190Z,26.53
2023-03-01T01:23:31.253Z,25.73
2023-03-01T01:26:04.538Z,24.07
2023-03-01T01:28:35.002Z,25.40
2023-03-01T01:31:05.527Z,34.17
2023-03-01T01:33:36.046Z,27.58
2023-03-01T01:36:07.296Z,26.57
2023-03-01T01:41:14.558Z,28.03
2023-03-01T01:43:48.379Z,24.83
2023-03-01T01:46:30.791Z,26.87
2023-03-01T01:49:06.577Z,24.47
2023-03-01T01:51:41.981Z,25.40
2023-03-01T01:54:20.604Z,21.63
2023-03-01T01:56:55.628Z,25.13
2023-03-01T01:59:27.703Z,24.57
2023-03-01T02:01:58.460Z,28.23
2023-03-01T02:04:32.392Z,25.50
2023-03-01T02:07:16.012Z,28.13
2023-03-01T02:09:53.822Z,33.30
2023-03-01T02:12:28.076Z,27.33
2023-03-01T02:14:59.023Z,31.50
2023-03-01T02:17:29.703Z,25.50
2023-03-01T02:20:16.778Z,24.02
2023-03-01T02:22:49.446Z,28.90
2023-03-01T02:25:35.624Z,27.77
2023-03-01T02:28:14.779Z,23.63
2023-03-01T02:31:02.548Z,30.83
2023-03-01T02:33:37.164Z,23.83
2023-03-01T02:36:14.381Z,26.33
2023-03-01T02:38:45.382Z,24.93
2023-03-01T02:41:19.901Z,27.48
2023-03-01T02:43:50.551Z,28.57
2023-03-01T02:46:27.072Z,29.67
2023-03-01T02:48:59.874Z,30.30
2023-03-01T02:51:51.493Z,24.97
2023-03-01T02:56:57.493Z,27.67
2023-03-01T02:59:34.836Z,25.80
2023-03-01T03:02:07.877Z,25.97
2023-03-01T03:04:38.440Z,27.67
2023-03-01T03:07:08.807Z,29.30
2023-03-01T03:09:39.134Z,26.13
2023-03-01T03:12:09.942Z,29.00
2023-03-01T03:14:40.558Z,30.77
2023-03-01T03:17:13.467Z,34.90
2023-03-01T03:19:46.444Z,26.57
2023-03-01T03:22:16.923Z,27.43
2023-03-01T03:24:47.294Z,28.10
2023-03-01T03:27:17.590Z,26.97
2023-03-01T03:29:47.841Z,30.07
2023-03-01T03:32:20.845Z,29.27
2023-03-01T03:34:51.175Z,27.80
2023-03-01T03:37:33.604Z,25.73
2023-03-01T03:40:04.619Z,26.77
2023-03-01T03:42:34.965Z,25.90
2023-03-01T03:45:05.298Z,30.30
2023-03-01T03:47:38.155Z,30.53
2023-03-01T03:50:09.634Z,30.17
2023-03-01T03:52:39.917Z,26.30
2023-03-01T03:55:13.237Z,30.20
2023-03-01T03:57:44.946Z,28.03
2023-03-01T04:00:17.447Z,34.43
2023-03-01T04:02:51.718Z,25.20
2023-03-01T04:05:23.063Z,27.40
2023-03-01T04:10:35.012Z,22.77
2023-03-01T04:13:05.621Z,25.20
2023-03-01T04:15:36.407Z,27.23
2023-03-01T04:18:10.445Z,26.60
2023-03-01T04:20:40.756Z,25.13
2023-03-01T04:23:17.325Z,27.60
2023-03-01T04:25:54.735Z,25.43
2023-03-01T04:28:26.082Z,26.50
2023-03-01T04:33:30.391Z,27.95
2023-03-01T04:36:00.830Z,26.20
2023-03-01T04:38:31.164Z,29.27
2023-03-01T04:41:01.440Z,24.37
2023-03-01T04:43:31.659Z,27.13
2023-03-01T04:46:07.331Z,29.63
2023-03-01T04:48:41.509Z,25.47
2023-03-01T04:51:14.494Z,31.90
2023-03-01T04:53:46.146Z,33.77
2023-03-01T04:56:19.078Z,23.07
2023-03-01T04:58:50.564Z,31.47
2023-03-01T05:01:24.800Z,24.43
2023-03-01T05:04:03.929Z,28.73
2023-03-01T05:06:34.258Z,28.20
2023-03-01T05:09:04.518Z,26.33
2023-03-01T05:11:36.952Z,26.53
2023-03-01T05:14:07.992Z,29.67
2023-03-01T05:16:40.062Z,26.02
2023-03-01T05:19:16.430Z,26.83
2023-03-01T05:21:59.845Z,25.97
2023-03-01T05:24:30.590Z,25.80
2023-03-01T05:27:01.281Z,26.15
2023-03-01T05:29:35.981Z,29.80
2023-03-01T05:32:07.901Z,26.23
2023-03-01T05:34:41.054Z,25.33
2023-03-01T05:37:11.493Z,25.40
2023-03-01T05:39:42.886Z,28.38
2023-03-01T05:42:15.510Z,25.77
2023-03-01T05:44:45.721Z,28.27
2023-03-01T05:47:16.022Z,27.73
2023-03-01T05:49:50.643Z,27.67
2023-03-01T05:52:20.912Z,29.57
2023-03-01T05:54:51.207Z,26.17
2023-03-01T05:57:21.491Z,26.57
2023-03-01T05:59:51.788Z,28.10
2023-03-01T06:02:22.224Z,30.07
2023-03-01T06:04:55.298Z,26.43
2023-03-01T06:07:25.650Z,21.77
2023-03-01T06:09:55.986Z,25.37
2023-03-01T06:12:26.344Z,31.63
2023-03-01T06:14:59.654Z,25.67
2023-03-01T06:17:32.651Z,27.93
2023-03-01T06:20:05.843Z,27.10
2023-03-01T06:22:36.377Z,26.97
2023-03-01T06:25:08.118Z,27.83
2023-03-01T06:27:38.856Z,27.17
2023-03-01T06:30:12.529Z,28.50
2023-03-01T06:32:43.702Z,29.90
2023-03-01T06:35:19.109Z,25.23
2023-03-01T06:37:50.938Z,27.17
2023-03-01T06:40:22.416Z,22.57
2023-03-01T06:42:57.210Z,27.83
2023-03-01T06:45:28.369Z,32.43
2023-03-01T06:48:07.271Z,30.67
2023-03-01T06:50:41.406Z,27.03
2023-03-01T06:53:11.919Z,32.10
2023-03-01T06:55:42.331Z,29.08
2023-03-01T06:58:14.165Z,29.93
2023-03-01T07:00:45.372Z,25.67
2023-03-01T07:03:15.665Z,25.92
2023-03-01T07:05:48.654Z,29.60
2023-03-01T07:08:18.986Z,23.03
2023-03-01T07:10:51.654Z,25.57
2023-03-01T07:13:22.911Z,27.97
2023-03-01T07:15:53.345Z,29.03
2023-03-01T07:18:23.743Z,25.27
2023-03-01T07:20:56.642Z,25.20
2023-03-01T07:23:26.992Z,24.27
2023-03-01T07:25:57.694Z,24.50
2023-03-01T07:28:28.811Z,26.25
2023-03-01T07:30:59.609Z,22.27
2023-03-01T07:33:29.940Z,22.77
2023-03-01T07:36:05.691Z,25.93
2023-03-01T07:38:36.596Z,22.73
2023-03-01T07:41:08.200Z,24.80
2023-03-01T07:43:38.713Z,23.70
2023-03-01T07:46:09.194Z,20.48
2023-03-01T07:48:40.477Z,21.40
2023-03-01T07:53:44.373Z,23.35
2023-03-01T07:56:18.591Z,22.00
2023-03-01T07:58:50.969Z,23.13
2023-03-01T08:01:24.932Z,23.10
2023-03-01T08:03:55.255Z,25.85
2023-03-01T08:06:28.246Z,24.55
2023-03-01T08:08:59.540Z,25.85
2023-03-01T08:11:30.560Z,23.63
2023-03-01T08:14:00.928Z,23.38
2023-03-01T08:16:31.923Z,24.88
2023-03-01T08:21:40.143Z,24.92
2023-03-01T08:24:12.086Z,23.90
2023-03-01T08:26:42.415Z,22.35
2023-03-01T08:29:12.722Z,23.70
2023-03-01T08:31:44.504Z,26.38
2023-03-01T08:34:18.169Z,22.90
2023-03-01T08:36:52.855Z,22.98
2023-03-01T08:39:25.959Z,23.10
2023-03-01T08:41:56.567Z,22.58
2023-03-01T08:44:27.211Z,22.30
2023-03-01T08:46:58.702Z,21.65
2023-03-01T08:49:29.299Z,20.67
2023-03-01T08:52:02.493Z,20.48
2023-03-01T08:54:32.963Z,23.70
2023-03-01T08:57:05.988Z,19.48
2023-03-01T08:59:38.396Z,21.88
2023-03-01T09:02:12.520Z,20.48
2023-03-01T09:04:43.096Z,19.05
2023-03-01T09:07:16.092Z,22.38
2023-03-01T09:09:46.575Z,20.40
2023-03-01T09:12:19.400Z,19.50
2023-03-01T09:14:50.022Z,18.25
2023-03-01T09:17:22.714Z,20.70
2023-03-01T09:19:54.779Z,17.42
2023-03-01T09:22:29.868Z,18.17
2023-03-01T09:25:00.524Z,18.95
2023-03-01T09:27:31.044Z,19.92
2023-03-01T09:30:01.373Z,18.88
2023-03-01T09:32:34.222Z,19.92
2023-03-01T09:35:10.439Z,19.33
2023-03-01T09:37:43.973Z,19.88
2023-03-01T09:40:20.381Z,17.70
2023-03-01T09:42:57.700Z,21.70
2023-03-01T09:45:37.560Z,20.25
2023-03-01T09:48:11.891Z,18.30
2023-03-01T09:50:47.757Z,20.55
2023-03-01T09:53:24.167Z,18.73
2023-03-01T09:56:04.525Z,19.52
2023-03-01T09:58:48.381Z,19.95
2023-03-01T10:01:43.028Z,22.58
2023-03-01T10:04:32.907Z,20.48
2023-03-01T10:07:20.554Z,21.20
2023-03-01T10:09:53.749Z,20.27
2023-03-01T10:12:31.321Z,20.35
2023-03-01T10:15:09.075Z,22.70
2023-03-01T10:17:42.100Z,21.05
2023-03-01T10:20:25.921Z,21.45
2023-03-01T10:23:00.007Z,21.45
2023-03-01T10:25:55.148Z,20.35
2023-03-01T10:28:35.467Z,19.63
2023-03-01T10:31:09.242Z,20.50
2023-03-01T10:33:43.164Z,19.10
2023-03-01T10:36:13.845Z,21.25
2023-03-01T10:38:57.975Z,20.35
2023-03-01T10:41:32.244Z,22.02
2023-03-01T10:44:04.018Z,18.52
2023-03-01T10:46:38.776Z,18.42
2023-03-01T10:49:17.821Z,18.92
2023-03-01T10:51:50.881Z,20.83
2023-03-01T10:54:24.998Z,21.65
2023-03-01T10:57:03.715Z,17.80
2023-03-01T10:59:37.046Z,22.75
2023-03-01T11:02:25.444Z,19.15
2023-03-01T11:05:03.565Z,20.13
2023-03-01T11:07:34.244Z,21.80
2023-03-01T11:10:16.441Z,20.65
2023-03-01T11:12:49.632Z,20.52
2023-03-01T11:15:30.303Z,21.17
2023-03-01T11:18:12.994Z,21.70
2023-03-01T11:20:47.374Z,20.50
2023-03-01T11:23:18.689Z,22.02
2023-03-01T11:26:00.363Z,19.15
2023-03-01T11:28:34.336Z,25.05
2023-03-01T11:31:10.196Z,19.92
2023-03-01T11:33:50.534Z,22.05
2023-03-01T11:36:38.564Z,19.80
2023-03-01T11:39:26.224Z,19.27
2023-03-01T11:42:17.075Z,22.05
2023-03-01T11:44:58.450Z,18.63
2023-03-01T11:47:49.689Z,18.30
2023-03-01T11:50:40.050Z,18.05
2023-03-01T11:56:09.820Z,18.13
2023-03-01T11:59:02.932Z,16.35
2023-03-01T12:01:55.371Z,17.63
2023-03-01T12:05:16.700Z,17.48
2023-03-01T12:07:57.366Z,16.55
2023-03-01T12:10:32.288Z,17.00
2023-03-01T12:13:22.802Z,15.63
2023-03-01T12:16:16.236Z,16.02
2023-03-01T12:19:21.689Z,18.23
2023-03-01T12:22:17.361Z,21.75
2023-03-01T12:25:15.109Z,19.60
2023-03-01T12:28:11.682Z,19.02
2023-03-01T12:30:59.247Z,17.98
2023-03-01T12:33:42.908Z,21.08
2023-03-01T12:36:42.175Z,20.20
2023-03-01T12:39:30.359Z,20.10
2023-03-01T12:42:11.794Z,21.15
2023-03-01T12:45:00.901Z,18.73
2023-03-01T12:47:52.237Z,20.17
2023-03-01T12:50:26.946Z,18.60
2023-03-01T12:53:01.947Z,18.48
2023-03-01T12:55:38.009Z,19.20
2023-03-01T12:58:17.466Z,19.65
2023-03-01T13:01:04.265Z,23.07
2023-03-01T13:03:56.446Z,19.92
2023-03-01T13:06:43.432Z,21.05
2023-03-01T13:09:28.662Z,18.25
2023-03-01T13:11:59.165Z,21.10
2023-03-01T13:14:50.238Z,22.15
2023-03-01T13:17:47.318Z,18.83
2023-03-01T13:20:21.633Z,21.33
2023-03-01T13:23:05.146Z,20.80
2023-03-01T13:25:42.872Z,19.30
2023-03-01T13:28:44.628Z,19.77
2023-03-01T13:32:05.813Z,20.23
2023-03-01T13:35:05.155Z,19.48
2023-03-01T13:37:39.328Z,18.87
2023-03-01T13:41:04.072Z,19.73
2023-03-01T13:43:37.034Z,16.90
2023-03-01T13:46:15.057Z,17.98
2023-03-01T13:48:49.350Z,18.15
2023-03-01T13:51:19.744Z,18.80
2023-03-01T13:53:51.824Z,17.95
2023-03-01T13:56:30.394Z,19.98
2023-03-01T13:59:06.405Z,17.63
2023-03-01T14:01:41.146Z,20.27
2023-03-01T14:04:26.909Z,18.42
2023-03-01T14:07:14.778Z,19.52
2023-03-01T14:09:48.135Z,20.60
2023-03-01T14:12:43.758Z,19.23
2023-03-01T14:15:22.765Z,19.30
2023-03-01T14:18:08.821Z,19.63
2023-03-01T14:20:46.686Z,18.40
2023-03-01T14:23:21.412Z,20.27
2023-03-01T14:25:54.199Z,19.15
2023-03-01T14:28:30.641Z,20.42
2023-03-01T14:31:03.947Z,19.02
2023-03-01T14:33:38.294Z,20.90
2023-03-01T14:36:11.170Z,19.10
2023-03-01T14:38:46.171Z,21.15
2023-03-01T14:41:21.414Z,19.65
2023-03-01T14:43:59.102Z,22.60
2023-03-01T14:46:37.651Z,19.63
2023-03-01T14:49:17.725Z,19.20
2023-03-01T14:51:56.377Z,20.27
2023-03-01T14:54:31.868Z,20.60
2023-03-01T14:57:05.225Z,20.33
2023-03-01T14:59:38.354Z,19.40
2023-03-01T15:02:12.972Z,22.42
2023-03-01T15:04:45.889Z,18.35
2023-03-01T15:07:18.150Z,19.35
2023-03-01T15:09:49.224Z,21.60
2023-03-01T15:12:44.818Z,21.27
2023-03-01T15:15:42.852Z,20.50
2023-03-01T15:18:24.921Z,21.00
2023-03-01T15:20:56.062Z,21.42
2023-03-01T15:23:29.995Z,21.67
2023-03-01T15:26:01.994Z,19.15
2023-03-01T15:28:35.960Z,21.30
2023-03-01T15:31:21.935Z,18.63
2023-03-01T15:33:53.209Z,19.85
2023-03-01T15:36:41.822Z,18.98
2023-03-01T15:39:39.185Z,17.25
2023-03-01T15:42:17.927Z,18.77
2023-03-01T15:44:48.795Z,19.08
2023-03-01T15:50:03.922Z,20.88
2023-03-01T15:52:40.800Z,19.48
2023-03-01T15:55:20.898Z,22.75
2023-03-01T15:57:52.085Z,21.27
2023-03-01T16:00:26.935Z,19.73
2023-03-01T16:03:00.607Z,25.25
2023-03-01T16:05:34.400Z,28.90
2023-03-01T16:08:06.663Z,23.48
2023-03-01T16:10:38.536Z,22.75
2023-03-01T16:13:09.084Z,19.90
2023-03-01T16:15:40.775Z,21.42
2023-03-01T16:18:13.784Z,25.23
2023-03-01T16:20:44.708Z,24.15
2023-03-01T16:23:15.856Z,23.75
2023-03-01T16:28:16.270Z,24.50
2023-03-01T16:30:51.935Z,22.77
2023-03-01T16:33:30.036Z,24.52
2023-03-01T16:36:04.696Z,23.35
2023-03-01T16:38:36.226Z,28.45
2023-03-01T16:41:06.865Z,23.23
2023-03-01T16:43:37.332Z,27.92
2023-03-01T16:46:14.694Z,21.50
2023-03-01T16:48:47.873Z,28.65
2023-03-01T16:51:18.610Z,26.80
2023-03-01T16:53:49.458Z,24.27
2023-03-01T16:56:20.729Z,27.20
2023-03-01T16:58:51.448Z,24.70
2023-03-01T17:01:27.109Z,27.35
2023-03-01T17:04:00.786Z,23.57
2023-03-01T17:06:32.942Z,24.47
2023-03-01T17:09:03.726Z,26.70
2023-03-01T17:11:34.902Z,24.80
2023-03-01T17:16:36.331Z,26.95
2023-03-01T17:21:39.608Z,26.93
2023-03-01T17:24:10.442Z,25.70
2023-03-01T17:26:40.919Z,24.50
2023-03-01T17:29:11.832Z,25.77
2023-03-01T17:31:42.364Z,28.48
2023-03-01T17:34:16.259Z,27.23
2023-03-01T17:36:47.826Z,27.00
2023-03-01T17:39:18.260Z,26.77
2023-03-01T17:41:48.627Z,30.40
2023-03-01T17:44:22.404Z,29.80
2023-03-01T17:46:53.027Z,28.23
2023-03-01T17:49:25.981Z,27.83
2023-03-01T17:51:56.621Z,30.37
2023-03-01T17:54:27.469Z,20.60
2023-03-01T17:56:59.045Z,28.33
2023-03-01T17:59:33.631Z,31.83
2023-03-01T18:02:04.142Z,26.03
2023-03-01T18:04:37.161Z,28.80
2023-03-01T18:07:07.586Z,28.30
2023-03-01T18:09:37.951Z,26.37
2023-03-01T18:12:08.527Z,39.97
2023-03-01T18:14:39.086Z,31.73
2023-03-01T18:17:12.276Z,27.60
2023-03-01T18:19:45.297Z,27.27
2023-03-01T18:22:15.706Z,28.97
2023-03-01T18:24:46.294Z,25.77
2023-03-01T18:27:16.768Z,27.50
2023-03-01T18:29:47.180Z,34.07
2023-03-01T18:32:17.751Z,30.92
2023-03-01T18:34:50.722Z,32.83
2023-03-01T18:37:21.039Z,30.87
2023-03-01T18:39:55.045Z,33.40
2023-03-01T18:42:25.361Z,34.37
2023-03-01T18:44:57.414Z,29.93
2023-03-01T18:47:27.746Z,31.83
2023-03-01T18:50:00.786Z,29.73
2023-03-01T18:52:31.119Z,28.37
2023-03-01T18:55:04.087Z,31.77
2023-03-01T18:57:37.452Z,31.40
2023-03-01T19:00:09.724Z,31.13
2023-03-01T19:02:40.276Z,31.53
2023-03-01T19:05:16.360Z,30.90
2023-03-01T19:07:46.891Z,29.40
2023-03-01T19:10:17.326Z,34.73
2023-03-01T19:12:47.829Z,33.15
2023-03-01T19:15:18.355Z,30.23
2023-03-01T19:17:49.000Z,30.48
2023-03-01T19:20:22.214Z,32.47
2023-03-01T19:22:52.554Z,30.03
2023-03-01T19:25:22.937Z,30.93
2023-03-01T19:27:53.328Z,35.63
2023-03-01T19:30:24.597Z,31.70
2023-03-01T19:35:28.141Z,33.63
2023-03-01T19:37:58.497Z,30.33
2023-03-01T19:40:29.082Z,32.70
2023-03-01T19:42:59.345Z,32.93
2023-03-01T19:45:34.724Z,28.73
2023-03-01T19:48:05.061Z,34.63
2023-03-01T19:50:38.542Z,31.03
2023-03-01T19:53:08.935Z,30.80
2023-03-01T19:55:40.139Z,29.80
2023-03-01T20:00:42.592Z,33.73
2023-03-01T20:03:13.109Z,41.93
2023-03-01T20:05:46.766Z,36.10
2023-03-01T20:08:17.167Z,30.87
2023-03-01T20:10:47.456Z,28.20
2023-03-01T20:13:21.193Z,32.23
2023-03-01T20:15:52.216Z,33.30
2023-03-01T20:18:22.626Z,33.20
2023-03-01T20:20:55.861Z,28.63
2023-03-01T20:23:26.218Z,31.50
2023-03-01T20:26:06.213Z,30.27
2023-03-01T20:28:38.652Z,34.83
2023-03-01T20:31:11.546Z,32.43
2023-03-01T20:33:42.246Z,32.73
2023-03-01T20:36:15.687Z,29.98
2023-03-01T20:38:46.386Z,31.87
2023-03-01T20:41:17.374Z,28.67
2023-03-01T20:43:53.834Z,32.20
2023-03-01T20:46:26.658Z,34.40
2023-03-01T20:48:57.417Z,37.10
2023-03-01T20:51:30.830Z,40.47
2023-03-01T20:54:01.342Z,38.20
2023-03-01T20:56:32.479Z,35.95
2023-03-01T20:59:08.472Z,37.30
2023-03-01T21:01:40.811Z,41.47
2023-03-01T21:04:13.152Z,38.37
2023-03-01T21:06:46.290Z,37.20
2023-03-01T21:09:17.375Z,38.90
2023-03-01T21:11:47.945Z,34.05
2023-03-01T21:14:18.558Z,30.42
2023-03-01T21:16:49.004Z,32.63
2023-03-01T21:19:19.574Z,33.85
2023-03-01T21:21:52.647Z,34.70
2023-03-01T21:24:23.214Z,33.60
2023-03-01T21:26:53.665Z,36.92
2023-03-01T21:29:24.070Z,35.77
2023-03-01T21:31:54.709Z,36.87
2023-03-01T21:34:27.974Z,34.30
2023-03-01T21:37:01.647Z,38.33
2023-03-01T21:39:32.311Z,37.57
2023-03-01T21:42:04.892Z,39.88
2023-03-01T21:44:36.587Z,36.00
2023-03-01T21:47:07.207Z,38.17
2023-03-01T21:49:37.931Z,35.20
2023-03-01T21:52:17.091Z,31.83
2023-03-01T21:54:48.143Z,35.50
2023-03-01T21:57:18.521Z,35.67
2023-03-01T21:59:48.944Z,36.33
2023-03-01T22:02:19.436Z,36.83
2023-03-01T22:04:49.889Z,33.87
2023-03-01T22:07:23.003Z,43.30
2023-03-01T22:09:53.656Z,34.23
2023-03-01T22:12:24.052Z,35.05
2023-03-01T22:14:54.518Z,36.27
2023-03-01T22:17:24.945Z,37.13
2023-03-01T22:19:55.397Z,35.90
2023-03-01T22:22:28.570Z,39.07
2023-03-01T22:24:58.882Z,33.40
2023-03-01T22:27:30.934Z,36.40
2023-03-01T22:30:01.243Z,33.67
2023-03-01T22:32:31.758Z,32.10
2023-03-01T22:35:04.400Z,35.38
2023-03-01T22:37:37.542Z,47.53
2023-03-01T22:40:11.223Z,33.40
2023-03-01T22:42:44.271Z,35.70
2023-03-01T22:45:15.980Z,29.03
2023-03-01T22:47:47.873Z,32.83
2023-03-01T22:50:20.306Z,31.60
2023-03-01T22:52:53.329Z,35.93
2023-03-01T22:55:24.099Z,33.90
2023-03-01T22:57:55.165Z,32.03
2023-03-01T23:00:31.128Z,35.83
2023-03-01T23:03:02.142Z,29.33
2023-03-01T23:05:35.566Z,31.35
2023-03-01T23:08:08.791Z,30.13
2023-03-01T23:10:43.840Z,29.50
2023-03-01T23:13:14.363Z,28.67
2023-03-01T23:15:45.931Z,30.30
2023-03-01T23:18:16.436Z,29.83
2023-03-01T23:20:46.954Z,30.08
2023-03-01T23:23:21.992Z,28.60
2023-03-01T23:25:59.690Z,30.23
2023-03-01T23:28:30.011Z,30.70
2023-03-01T23:31:02.413Z,28.97
2023-03-01T23:33:38.041Z,32.23
2023-03-01T23:36:10.003Z,30.93
2023-03-01T23:38:43.345Z,28.40
2023-03-01T23:41:14.218Z,27.83
2023-03-01T23:43:51.391Z,28.23
2023-03-01T23:46:24.379Z,25.67
2023-03-01T23:48:56.400Z,28.80
2023-03-01T23:51:27.390Z,29.10
2023-03-01T23:54:05.539Z,25.58
2023-03-01T23:56:38.878Z,26.40
2023-03-01T23:59:13.398Z,27.17
